sensor_id;sensor_type;location;lat;lon;timestamp;P1;durP1;ratioP1;P2;durP2;ratioP2
26502;SDS011;14177;51.520;6.764;2023-08-30T00:02:11;8.32;;;5.15;;
26502;SDS011;14177;51.520;6.764;2023-08-30T00:04:37;8.20;;;5.78;;
26502;SDS011;14177;51.520;6.764;2023-08-30T00:07:04;11.18;;;6.72;;
26502;SDS011;14177;51.520;6.764;2023-08-30T00:09:31;9.82;;;6.55;;
26502;SDS011;14177;51.520;6.764;2023-08-30T00:11:58;8.40;;;5.13;;
26502;SDS011;14177;51.520;6.764;2023-08-30T00:14:25;9.00;;;5.97;;
26502;SDS011;14177;51.520;6.764;2023-08-30T00:16:52;8.35;;;6.57;;
26502;SDS011;14177;51.520;6.764;2023-08-30T00:19:19;8.32;;;6.00;;
26502;SDS011;14177;51.520;6.764;2023-08-30T00:21:46;10.27;;;6.45;;
26502;SDS011;14177;51.520;6.764;2023-08-30T00:24:13;10.90;;;6.45;;
26502;SDS011;14177;51.520;6.764;2023-08-30T00:26:40;10.15;;;5.90;;
26502;SDS011;14177;51.520;6.764;2023-08-30T00:29:07;8.85;;;6.25;;
26502;SDS011;14177;51.520;6.764;2023-08-30T00:31:34;10.48;;;7.25;;
26502;SDS011;14177;51.520;6.764;2023-08-30T00:34:01;12.73;;;7.57;;
26502;SDS011;14177;51.520;6.764;2023-08-30T00:36:28;8.38;;;6.55;;
26502;SDS011;14177;51.520;6.764;2023-08-30T00:38:55;8.02;;;6.15;;
26502;SDS011;14177;51.520;6.764;2023-08-30T00:41:22;10.10;;;5.63;;
26502;SDS011;14177;51.520;6.764;2023-08-30T00:43:49;10.57;;;5.97;;
26502;SDS011;14177;51.520;6.764;2023-08-30T00:46:16;10.05;;;6.45;;
26502;SDS011;14177;51.520;6.764;2023-08-30T00:48:44;11.00;;;6.78;;
26502;SDS011;14177;51.520;6.764;2023-08-30T00:51:11;10.27;;;6.30;;
26502;SDS011;14177;51.520;6.764;2023-08-30T00:53:39;10.73;;;7.25;;
26502;SDS011;14177;51.520;6.764;2023-08-30T00:56:06;10.70;;;6.90;;
26502;SDS011;14177;51.520;6.764;2023-08-30T00:58:33;9.35;;;6.93;;
26502;SDS011;14177;51.520;6.764;2023-08-30T01:01:00;10.32;;;6.80;;
26502;SDS011;14177;51.520;6.764;2023-08-30T01:03:28;9.93;;;6.35;;
26502;SDS011;14177;51.520;6.764;2023-08-30T01:05:55;8.65;;;6.38;;
26502;SDS011;14177;51.520;6.764;2023-08-30T01:08:22;8.48;;;5.80;;
26502;SDS011;14177;51.520;6.764;2023-08-30T01:10:52;10.48;;;6.70;;
26502;SDS011;14177;51.520;6.764;2023-08-30T01:14:08;7.80;;;5.68;;
26502;SDS011;14177;51.520;6.764;2023-08-30T01:16:41;9.35;;;6.40;;
26502;SDS011;14177;51.520;6.764;2023-08-30T01:19:57;13.93;;;7.30;;
26502;SDS011;14177;51.520;6.764;2023-08-30T01:22:16;10.07;;;6.22;;
26502;SDS011;14177;51.520;6.764;2023-08-30T01:25:06;10.38;;;6.80;;
26502;SDS011;14177;51.520;6.764;2023-08-30T01:27:39;11.70;;;7.25;;
26502;SDS011;14177;51.520;6.764;2023-08-30T01:30:08;16.48;;;7.60;;
26502;SDS011;14177;51.520;6.764;2023-08-30T01:32:37;12.75;;;7.45;;
26502;SDS011;14177;51.520;6.764;2023-08-30T01:35:07;11.98;;;6.97;;
26502;SDS011;14177;51.520;6.764;2023-08-30T01:37:35;13.20;;;8.13;;
26502;SDS011;14177;51.520;6.764;2023-08-30T01:40:05;14.88;;;7.20;;
26502;SDS011;14177;51.520;6.764;2023-08-30T01:42:35;9.43;;;5.82;;
26502;SDS011;14177;51.520;6.764;2023-08-30T01:45:04;11.75;;;7.45;;
26502;SDS011;14177;51.520;6.764;2023-08-30T01:47:34;9.73;;;7.07;;
26502;SDS011;14177;51.520;6.764;2023-08-30T01:50:02;13.68;;;6.55;;
26502;SDS011;14177;51.520;6.764;2023-08-30T01:52:30;11.30;;;7.38;;
26502;SDS011;14177;51.520;6.764;2023-08-30T01:54:59;12.52;;;8.15;;
26502;SDS011;14177;51.520;6.764;2023-08-30T01:57:30;14.10;;;7.60;;
26502;SDS011;14177;51.520;6.764;2023-08-30T01:59:57;11.02;;;7.22;;
26502;SDS011;14177;51.520;6.764;2023-08-30T02:02:24;12.18;;;7.43;;
26502;SDS011;14177;51.520;6.764;2023-08-30T02:04:55;11.35;;;7.65;;
26502;SDS011;14177;51.520;6.764;2023-08-30T02:07:25;11.95;;;7.57;;
26502;SDS011;14177;51.520;6.764;2023-08-30T02:10:08;10.25;;;7.38;;
26502;SDS011;14177;51.520;6.764;2023-08-30T02:12:46;10.75;;;7.15;;
26502;SDS011;14177;51.520;6.764;2023-08-30T02:15:16;11.30;;;7.10;;
26502;SDS011;14177;51.520;6.764;2023-08-30T02:17:46;10.45;;;7.50;;
26502;SDS011;14177;51.520;6.764;2023-08-30T02:20:15;10.48;;;7.68;;
26502;SDS011;14177;51.520;6.764;2023-08-30T02:22:43;13.52;;;7.25;;
26502;SDS011;14177;51.520;6.764;2023-08-30T02:25:10;10.95;;;7.53;;
26502;SDS011;14177;51.520;6.764;2023-08-30T02:27:37;10.57;;;7.30;;
26502;SDS011;14177;51.520;6.764;2023-08-30T02:30:04;13.02;;;7.32;;
26502;SDS011;14177;51.520;6.764;2023-08-30T02:32:32;11.13;;;7.00;;
26502;SDS011;14177;51.520;6.764;2023-08-30T02:34:59;12.32;;;7.32;;
26502;SDS011;14177;51.520;6.764;2023-08-30T02:37:26;10.55;;;7.18;;
26502;SDS011;14177;51.520;6.764;2023-08-30T02:39:53;11.95;;;8.18;;
26502;SDS011;14177;51.520;6.764;2023-08-30T02:42:20;19.25;;;7.72;;
26502;SDS011;14177;51.520;6.764;2023-08-30T02:44:47;13.60;;;8.13;;
26502;SDS011;14177;51.520;6.764;2023-08-30T02:47:13;13.07;;;8.63;;
26502;SDS011;14177;51.520;6.764;2023-08-30T02:49:40;13.57;;;9.00;;
26502;SDS011;14177;51.520;6.764;2023-08-30T02:52:07;11.93;;;7.82;;
26502;SDS011;14177;51.520;6.764;2023-08-30T02:54:34;13.18;;;8.77;;
26502;SDS011;14177;51.520;6.764;2023-08-30T02:57:01;16.63;;;8.38;;
26502;SDS011;14177;51.520;6.764;2023-08-30T02:59:28;14.93;;;9.55;;
26502;SDS011;14177;51.520;6.764;2023-08-30T03:02:02;15.10;;;8.00;;
26502;SDS011;14177;51.520;6.764;2023-08-30T03:04:29;17.27;;;9.80;;
26502;SDS011;14177;51.520;6.764;2023-08-30T03:06:57;12.57;;;8.65;;
26502;SDS011;14177;51.520;6.764;2023-08-30T03:09:26;12.75;;;8.18;;
26502;SDS011;14177;51.520;6.764;2023-08-30T03:11:54;16.38;;;9.48;;
26502;SDS011;14177;51.520;6.764;2023-08-30T03:14:21;14.32;;;9.57;;
26502;SDS011;14177;51.520;6.764;2023-08-30T03:16:49;14.45;;;9.52;;
26502;SDS011;14177;51.520;6.764;2023-08-30T03:19:15;12.45;;;8.45;;
26502;SDS011;14177;51.520;6.764;2023-08-30T03:21:43;13.10;;;9.45;;
26502;SDS011;14177;51.520;6.764;2023-08-30T03:24:10;19.90;;;9.43;;
26502;SDS011;14177;51.520;6.764;2023-08-30T03:26:38;14.38;;;9.43;;
26502;SDS011;14177;51.520;6.764;2023-08-30T03:29:05;14.55;;;8.82;;
26502;SDS011;14177;51.520;6.764;2023-08-30T03:31:31;12.85;;;8.82;;
26502;SDS011;14177;51.520;6.764;2023-08-30T03:33:59;14.32;;;8.77;;
26502;SDS011;14177;51.520;6.764;2023-08-30T03:36:27;17.48;;;9.02;;
26502;SDS011;14177;51.520;6.764;2023-08-30T03:38:54;15.98;;;9.73;;
26502;SDS011;14177;51.520;6.764;2023-08-30T03:41:21;18.23;;;10.73;;
26502;SDS011;14177;51.520;6.764;2023-08-30T03:43:49;18.35;;;10.82;;
26502;SDS011;14177;51.520;6.764;2023-08-30T03:46:15;15.95;;;10.55;;
26502;SDS011;14177;51.520;6.764;2023-08-30T03:48:42;23.42;;;12.15;;
26502;SDS011;14177;51.520;6.764;2023-08-30T03:51:10;29.67;;;13.65;;
26502;SDS011;14177;51.520;6.764;2023-08-30T03:53:37;30.15;;;12.38;;
26502;SDS011;14177;51.520;6.764;2023-08-30T03:56:04;27.05;;;13.18;;
26502;SDS011;14177;51.520;6.764;2023-08-30T03:58:31;26.42;;;11.75;;
26502;SDS011;14177;51.520;6.764;2023-08-30T04:00:59;20.02;;;11.07;;
26502;SDS011;14177;51.520;6.764;2023-08-30T04:03:26;16.05;;;9.90;;
26502;SDS011;14177;51.520;6.764;2023-08-30T04:05:56;20.10;;;10.05;;
26502;SDS011;14177;51.520;6.764;2023-08-30T04:08:23;20.13;;;10.68;;
26502;SDS011;14177;51.520;6.764;2023-08-30T04:10:52;19.90;;;10.70;;
26502;SDS011;14177;51.520;6.764;2023-08-30T04:13:20;18.38;;;11.45;;
26502;SDS011;14177;51.520;6.764;2023-08-30T04:15:47;19.20;;;11.00;;
26502;SDS011;14177;51.520;6.764;2023-08-30T04:18:14;20.33;;;10.98;;
26502;SDS011;14177;51.520;6.764;2023-08-30T04:20:43;16.85;;;11.30;;
26502;SDS011;14177;51.520;6.764;2023-08-30T04:23:12;20.30;;;11.75;;
26502;SDS011;14177;51.520;6.764;2023-08-30T04:25:40;20.40;;;12.30;;
26502;SDS011;14177;51.520;6.764;2023-08-30T04:28:07;21.65;;;13.30;;
26502;SDS011;14177;51.520;6.764;2023-08-30T04:30:36;19.05;;;11.88;;
26502;SDS011;14177;51.520;6.764;2023-08-30T04:33:04;21.90;;;12.75;;
26502;SDS011;14177;51.520;6.764;2023-08-30T04:35:32;18.77;;;12.63;;
26502;SDS011;14177;51.520;6.764;2023-08-30T04:38:00;22.55;;;13.43;;
26502;SDS011;14177;51.520;6.764;2023-08-30T04:40:28;21.92;;;13.30;;
26502;SDS011;14177;51.520;6.764;2023-08-30T04:42:57;19.73;;;13.25;;
26502;SDS011;14177;51.520;6.764;2023-08-30T04:45:25;24.27;;;13.60;;
26502;SDS011;14177;51.520;6.764;2023-08-30T04:47:52;20.00;;;13.25;;
26502;SDS011;14177;51.520;6.764;2023-08-30T04:50:19;23.38;;;13.27;;
26502;SDS011;14177;51.520;6.764;2023-08-30T04:52:46;22.45;;;13.15;;
26502;SDS011;14177;51.520;6.764;2023-08-30T04:55:14;23.55;;;14.00;;
26502;SDS011;14177;51.520;6.764;2023-08-30T04:57:40;19.63;;;13.50;;
26502;SDS011;14177;51.520;6.764;2023-08-30T05:00:13;19.40;;;13.13;;
26502;SDS011;14177;51.520;6.764;2023-08-30T05:02:40;24.65;;;14.30;;
26502;SDS011;14177;51.520;6.764;2023-08-30T05:05:10;22.05;;;14.13;;
26502;SDS011;14177;51.520;6.764;2023-08-30T05:07:37;22.60;;;13.38;;
26502;SDS011;14177;51.520;6.764;2023-08-30T05:10:05;20.65;;;13.25;;
26502;SDS011;14177;51.520;6.764;2023-08-30T05:12:33;24.60;;;14.20;;
26502;SDS011;14177;51.520;6.764;2023-08-30T05:15:02;24.75;;;14.80;;
26502;SDS011;14177;51.520;6.764;2023-08-30T05:17:30;21.92;;;13.63;;
26502;SDS011;14177;51.520;6.764;2023-08-30T05:19:58;23.83;;;14.73;;
26502;SDS011;14177;51.520;6.764;2023-08-30T05:22:24;22.83;;;13.95;;
26502;SDS011;14177;51.520;6.764;2023-08-30T05:24:51;24.67;;;15.00;;
26502;SDS011;14177;51.520;6.764;2023-08-30T05:27:18;22.00;;;14.18;;
26502;SDS011;14177;51.520;6.764;2023-08-30T05:29:46;23.77;;;14.80;;
26502;SDS011;14177;51.520;6.764;2023-08-30T05:32:13;28.02;;;14.73;;
26502;SDS011;14177;51.520;6.764;2023-08-30T05:35:11;23.77;;;15.38;;
26502;SDS011;14177;51.520;6.764;2023-08-30T05:37:56;27.98;;;15.13;;
26502;SDS011;14177;51.520;6.764;2023-08-30T05:40:45;26.05;;;14.98;;
26502;SDS011;14177;51.520;6.764;2023-08-30T05:43:12;24.48;;;14.20;;
26502;SDS011;14177;51.520;6.764;2023-08-30T05:45:39;22.42;;;15.85;;
26502;SDS011;14177;51.520;6.764;2023-08-30T05:48:07;25.23;;;15.43;;
26502;SDS011;14177;51.520;6.764;2023-08-30T05:50:34;28.02;;;15.15;;
26502;SDS011;14177;51.520;6.764;2023-08-30T05:53:02;24.50;;;15.43;;
26502;SDS011;14177;51.520;6.764;2023-08-30T05:55:31;25.35;;;15.57;;
26502;SDS011;14177;51.520;6.764;2023-08-30T05:57:58;26.02;;;15.05;;
26502;SDS011;14177;51.520;6.764;2023-08-30T06:00:25;24.75;;;15.70;;
26502;SDS011;14177;51.520;6.764;2023-08-30T06:02:52;21.58;;;14.23;;
26502;SDS011;14177;51.520;6.764;2023-08-30T06:05:19;28.48;;;14.90;;
26502;SDS011;14177;51.520;6.764;2023-08-30T06:07:46;24.52;;;14.98;;
26502;SDS011;14177;51.520;6.764;2023-08-30T06:10:13;25.05;;;14.32;;
26502;SDS011;14177;51.520;6.764;2023-08-30T06:12:40;19.65;;;14.07;;
26502;SDS011;14177;51.520;6.764;2023-08-30T06:15:07;26.17;;;15.25;;
26502;SDS011;14177;51.520;6.764;2023-08-30T06:17:34;22.35;;;14.30;;
26502;SDS011;14177;51.520;6.764;2023-08-30T06:20:01;22.95;;;14.45;;
26502;SDS011;14177;51.520;6.764;2023-08-30T06:22:29;23.65;;;13.88;;
26502;SDS011;14177;51.520;6.764;2023-08-30T06:24:57;29.08;;;14.55;;
26502;SDS011;14177;51.520;6.764;2023-08-30T06:27:25;26.48;;;14.68;;
26502;SDS011;14177;51.520;6.764;2023-08-30T06:29:52;23.77;;;13.88;;
26502;SDS011;14177;51.520;6.764;2023-08-30T06:32:18;25.38;;;14.60;;
26502;SDS011;14177;51.520;6.764;2023-08-30T06:34:45;25.00;;;14.35;;
26502;SDS011;14177;51.520;6.764;2023-08-30T06:37:12;25.75;;;14.25;;
26502;SDS011;14177;51.520;6.764;2023-08-30T06:39:39;20.42;;;13.15;;
26502;SDS011;14177;51.520;6.764;2023-08-30T06:42:06;19.83;;;12.73;;
26502;SDS011;14177;51.520;6.764;2023-08-30T06:44:33;22.17;;;13.40;;
26502;SDS011;14177;51.520;6.764;2023-08-30T06:47:00;22.58;;;13.18;;
26502;SDS011;14177;51.520;6.764;2023-08-30T06:49:28;20.63;;;12.88;;
26502;SDS011;14177;51.520;6.764;2023-08-30T06:51:57;22.25;;;12.70;;
26502;SDS011;14177;51.520;6.764;2023-08-30T06:54:24;25.52;;;12.73;;
26502;SDS011;14177;51.520;6.764;2023-08-30T06:56:58;23.27;;;13.73;;
26502;SDS011;14177;51.520;6.764;2023-08-30T06:59:28;23.90;;;13.30;;
26502;SDS011;14177;51.520;6.764;2023-08-30T07:01:56;22.80;;;12.60;;
26502;SDS011;14177;51.520;6.764;2023-08-30T07:04:23;20.80;;;12.75;;
26502;SDS011;14177;51.520;6.764;2023-08-30T07:06:50;20.13;;;12.48;;
26502;SDS011;14177;51.520;6.764;2023-08-30T07:09:18;22.85;;;12.63;;
26502;SDS011;14177;51.520;6.764;2023-08-30T07:11:48;17.52;;;12.80;;
26502;SDS011;14177;51.520;6.764;2023-08-30T07:14:15;23.35;;;11.82;;
26502;SDS011;14177;51.520;6.764;2023-08-30T07:16:52;20.88;;;12.30;;
26502;SDS011;14177;51.520;6.764;2023-08-30T07:19:19;20.42;;;11.90;;
26502;SDS011;14177;51.520;6.764;2023-08-30T07:21:46;20.17;;;12.85;;
26502;SDS011;14177;51.520;6.764;2023-08-30T07:24:13;17.55;;;11.57;;
26502;SDS011;14177;51.520;6.764;2023-08-30T07:26:40;17.40;;;11.18;;
26502;SDS011;14177;51.520;6.764;2023-08-30T07:29:08;19.83;;;11.77;;
26502;SDS011;14177;51.520;6.764;2023-08-30T07:31:36;20.90;;;10.73;;
26502;SDS011;14177;51.520;6.764;2023-08-30T07:34:03;17.60;;;10.60;;
26502;SDS011;14177;51.520;6.764;2023-08-30T07:36:30;19.00;;;10.68;;
26502;SDS011;14177;51.520;6.764;2023-08-30T07:39:13;19.20;;;10.65;;
26502;SDS011;14177;51.520;6.764;2023-08-30T07:41:40;16.55;;;10.05;;
26502;SDS011;14177;51.520;6.764;2023-08-30T07:44:07;22.13;;;9.77;;
26502;SDS011;14177;51.520;6.764;2023-08-30T07:46:34;15.98;;;9.32;;
26502;SDS011;14177;51.520;6.764;2023-08-30T07:49:01;17.60;;;9.07;;
26502;SDS011;14177;51.520;6.764;2023-08-30T07:51:29;13.25;;;8.00;;
26502;SDS011;14177;51.520;6.764;2023-08-30T07:53:56;15.68;;;9.20;;
26502;SDS011;14177;51.520;6.764;2023-08-30T07:56:23;15.57;;;8.70;;
26502;SDS011;14177;51.520;6.764;2023-08-30T07:58:50;14.50;;;8.25;;
26502;SDS011;14177;51.520;6.764;2023-08-30T08:01:16;12.48;;;7.45;;
26502;SDS011;14177;51.520;6.764;2023-08-30T08:03:44;14.82;;;7.93;;
26502;SDS011;14177;51.520;6.764;2023-08-30T08:06:30;11.40;;;6.65;;
26502;SDS011;14177;51.520;6.764;2023-08-30T08:08:57;10.27;;;5.75;;
26502;SDS011;14177;51.520;6.764;2023-08-30T08:11:25;9.30;;;5.20;;
26502;SDS011;14177;51.520;6.764;2023-08-30T08:13:52;10.13;;;5.43;;
26502;SDS011;14177;51.520;6.764;2023-08-30T08:16:19;8.88;;;5.50;;
26502;SDS011;14177;51.520;6.764;2023-08-30T08:18:46;9.40;;;5.10;;
26502;SDS011;14177;51.520;6.764;2023-08-30T08:21:14;10.02;;;4.60;;
26502;SDS011;14177;51.520;6.764;2023-08-30T08:23:41;8.38;;;4.38;;
26502;SDS011;14177;51.520;6.764;2023-08-30T08:26:08;10.00;;;5.00;;
26502;SDS011;14177;51.520;6.764;2023-08-30T08:28:35;8.68;;;4.75;;
26502;SDS011;14177;51.520;6.764;2023-08-30T08:31:02;10.35;;;5.63;;
26502;SDS011;14177;51.520;6.764;2023-08-30T08:33:29;12.07;;;4.70;;
26502;SDS011;14177;51.520;6.764;2023-08-30T08:35:56;12.38;;;4.50;;
26502;SDS011;14177;51.520;6.764;2023-08-30T08:38:23;10.70;;;4.22;;
26502;SDS011;14177;51.520;6.764;2023-08-30T08:40:51;8.30;;;4.80;;
26502;SDS011;14177;51.520;6.764;2023-08-30T08:43:28;8.68;;;4.10;;
26502;SDS011;14177;51.520;6.764;2023-08-30T08:45:59;7.05;;;3.78;;
26502;SDS011;14177;51.520;6.764;2023-08-30T08:48:28;9.25;;;4.07;;
26502;SDS011;14177;51.520;6.764;2023-08-30T08:50:57;9.48;;;3.92;;
26502;SDS011;14177;51.520;6.764;2023-08-30T08:53:26;7.05;;;4.38;;
26502;SDS011;14177;51.520;6.764;2023-08-30T08:55:53;7.40;;;4.22;;
26502;SDS011;14177;51.520;6.764;2023-08-30T08:58:24;10.70;;;4.57;;
26502;SDS011;14177;51.520;6.764;2023-08-30T09:00:52;9.23;;;4.88;;
26502;SDS011;14177;51.520;6.764;2023-08-30T09:03:20;8.02;;;4.22;;
26502;SDS011;14177;51.520;6.764;2023-08-30T09:05:48;6.43;;;4.55;;
26502;SDS011;14177;51.520;6.764;2023-08-30T09:08:17;8.70;;;4.18;;
26502;SDS011;14177;51.520;6.764;2023-08-30T09:10:44;7.57;;;4.75;;
26502;SDS011;14177;51.520;6.764;2023-08-30T09:13:11;6.82;;;4.07;;
26502;SDS011;14177;51.520;6.764;2023-08-30T09:15:39;8.07;;;4.65;;
26502;SDS011;14177;51.520;6.764;2023-08-30T09:18:14;6.45;;;4.03;;
26502;SDS011;14177;51.520;6.764;2023-08-30T09:20:43;6.10;;;3.95;;
26502;SDS011;14177;51.520;6.764;2023-08-30T09:23:17;5.93;;;3.92;;
26502;SDS011;14177;51.520;6.764;2023-08-30T09:25:46;6.35;;;4.30;;
26502;SDS011;14177;51.520;6.764;2023-08-30T09:28:21;8.13;;;5.35;;
26502;SDS011;14177;51.520;6.764;2023-08-30T09:30:54;12.20;;;4.95;;
26502;SDS011;14177;51.520;6.764;2023-08-30T09:33:44;10.98;;;4.90;;
26502;SDS011;14177;51.520;6.764;2023-08-30T09:36:14;9.98;;;4.80;;
26502;SDS011;14177;51.520;6.764;2023-08-30T09:38:47;9.73;;;4.88;;
26502;SDS011;14177;51.520;6.764;2023-08-30T09:41:16;10.20;;;4.47;;
26502;SDS011;14177;51.520;6.764;2023-08-30T09:43:43;9.75;;;5.05;;
26502;SDS011;14177;51.520;6.764;2023-08-30T09:46:10;8.77;;;5.15;;
26502;SDS011;14177;51.520;6.764;2023-08-30T09:48:38;8.48;;;5.07;;
26502;SDS011;14177;51.520;6.764;2023-08-30T09:51:07;7.57;;;4.90;;
26502;SDS011;14177;51.520;6.764;2023-08-30T09:53:40;10.07;;;5.07;;
26502;SDS011;14177;51.520;6.764;2023-08-30T09:56:31;8.75;;;4.93;;
26502;SDS011;14177;51.520;6.764;2023-08-30T09:59:02;7.53;;;4.82;;
26502;SDS011;14177;51.520;6.764;2023-08-30T10:01:31;8.00;;;5.18;;
26502;SDS011;14177;51.520;6.764;2023-08-30T10:03:58;9.00;;;5.40;;
26502;SDS011;14177;51.520;6.764;2023-08-30T10:06:27;8.98;;;5.75;;
26502;SDS011;14177;51.520;6.764;2023-08-30T10:08:56;8.85;;;5.75;;
26502;SDS011;14177;51.520;6.764;2023-08-30T10:11:25;9.60;;;5.57;;
26502;SDS011;14177;51.520;6.764;2023-08-30T10:13:53;11.30;;;5.88;;
26502;SDS011;14177;51.520;6.764;2023-08-30T10:16:22;10.30;;;5.43;;
26502;SDS011;14177;51.520;6.764;2023-08-30T10:18:54;8.45;;;5.38;;
26502;SDS011;14177;51.520;6.764;2023-08-30T10:21:35;9.00;;;5.82;;
26502;SDS011;14177;51.520;6.764;2023-08-30T10:24:05;12.95;;;6.05;;
26502;SDS011;14177;51.520;6.764;2023-08-30T10:26:56;11.10;;;6.53;;
26502;SDS011;14177;51.520;6.764;2023-08-30T10:29:25;9.50;;;6.28;;
26502;SDS011;14177;51.520;6.764;2023-08-30T10:31:55;9.93;;;6.38;;
26502;SDS011;14177;51.520;6.764;2023-08-30T10:34:22;10.88;;;5.97;;
26502;SDS011;14177;51.520;6.764;2023-08-30T10:36:58;8.07;;;5.63;;
26502;SDS011;14177;51.520;6.764;2023-08-30T10:42:13;11.00;;;5.47;;
26502;SDS011;14177;51.520;6.764;2023-08-30T10:47:38;8.88;;;5.20;;
26502;SDS011;14177;51.520;6.764;2023-08-30T10:50:10;12.25;;;5.70;;
26502;SDS011;14177;51.520;6.764;2023-08-30T10:52:38;9.93;;;5.63;;
26502;SDS011;14177;51.520;6.764;2023-08-30T10:55:06;8.32;;;5.40;;
26502;SDS011;14177;51.520;6.764;2023-08-30T10:57:42;10.02;;;5.38;;
26502;SDS011;14177;51.520;6.764;2023-08-30T11:02:45;7.55;;;5.07;;
26502;SDS011;14177;51.520;6.764;2023-08-30T11:05:16;10.05;;;5.40;;
26502;SDS011;14177;51.520;6.764;2023-08-30T11:07:45;9.77;;;5.18;;
26502;SDS011;14177;51.520;6.764;2023-08-30T11:10:13;11.25;;;5.07;;
26502;SDS011;14177;51.520;6.764;2023-08-30T11:12:41;7.05;;;4.70;;
26502;SDS011;14177;51.520;6.764;2023-08-30T11:15:10;7.53;;;4.13;;
26502;SDS011;14177;51.520;6.764;2023-08-30T11:17:43;9.02;;;4.50;;
26502;SDS011;14177;51.520;6.764;2023-08-30T11:20:15;8.35;;;4.35;;
26502;SDS011;14177;51.520;6.764;2023-08-30T11:22:45;9.45;;;3.80;;
26502;SDS011;14177;51.520;6.764;2023-08-30T11:25:14;6.70;;;4.03;;
26502;SDS011;14177;51.520;6.764;2023-08-30T11:27:43;7.57;;;4.05;;
26502;SDS011;14177;51.520;6.764;2023-08-30T11:30:10;9.45;;;4.50;;
26502;SDS011;14177;51.520;6.764;2023-08-30T11:32:38;9.27;;;4.25;;
26502;SDS011;14177;51.520;6.764;2023-08-30T11:35:10;6.95;;;3.60;;
26502;SDS011;14177;51.520;6.764;2023-08-30T11:37:39;7.43;;;3.63;;
26502;SDS011;14177;51.520;6.764;2023-08-30T11:40:08;7.43;;;4.22;;
26502;SDS011;14177;51.520;6.764;2023-08-30T11:42:37;8.05;;;5.00;;
26502;SDS011;14177;51.520;6.764;2023-08-30T11:45:05;11.52;;;5.78;;
26502;SDS011;14177;51.520;6.764;2023-08-30T11:47:33;8.85;;;4.38;;
26502;SDS011;14177;51.520;6.764;2023-08-30T11:50:00;9.98;;;4.28;;
26502;SDS011;14177;51.520;6.764;2023-08-30T11:52:28;9.88;;;4.28;;
26502;SDS011;14177;51.520;6.764;2023-08-30T11:54:55;9.35;;;4.43;;
26502;SDS011;14177;51.520;6.764;2023-08-30T11:57:22;8.43;;;4.00;;
26502;SDS011;14177;51.520;6.764;2023-08-30T11:59:49;6.78;;;3.78;;
26502;SDS011;14177;51.520;6.764;2023-08-30T12:02:17;7.10;;;3.22;;
26502;SDS011;14177;51.520;6.764;2023-08-30T12:04:45;5.07;;;3.05;;
26502;SDS011;14177;51.520;6.764;2023-08-30T12:07:21;5.88;;;3.55;;
26502;SDS011;14177;51.520;6.764;2023-08-30T12:10:09;6.60;;;4.05;;
26502;SDS011;14177;51.520;6.764;2023-08-30T12:12:38;8.33;;;4.60;;
26502;SDS011;14177;51.520;6.764;2023-08-30T12:15:11;6.72;;;4.15;;
26502;SDS011;14177;51.520;6.764;2023-08-30T12:17:41;6.78;;;3.50;;
26502;SDS011;14177;51.520;6.764;2023-08-30T12:20:15;6.18;;;3.78;;
26502;SDS011;14177;51.520;6.764;2023-08-30T12:22:46;6.88;;;3.42;;
26502;SDS011;14177;51.520;6.764;2023-08-30T12:25:15;6.50;;;3.10;;
26502;SDS011;14177;51.520;6.764;2023-08-30T12:27:43;6.43;;;3.30;;
26502;SDS011;14177;51.520;6.764;2023-08-30T12:30:11;4.28;;;3.25;;
26502;SDS011;14177;51.520;6.764;2023-08-30T12:32:40;6.50;;;2.95;;
26502;SDS011;14177;51.520;6.764;2023-08-30T12:35:07;9.57;;;3.30;;
26502;SDS011;14177;51.520;6.764;2023-08-30T12:37:35;6.57;;;2.63;;
26502;SDS011;14177;51.520;6.764;2023-08-30T12:40:02;6.97;;;3.20;;
26502;SDS011;14177;51.520;6.764;2023-08-30T12:42:30;6.45;;;3.42;;
26502;SDS011;14177;51.520;6.764;2023-08-30T12:44:57;7.03;;;4.43;;
26502;SDS011;14177;51.520;6.764;2023-08-30T12:47:24;10.98;;;5.07;;
26502;SDS011;14177;51.520;6.764;2023-08-30T12:49:51;7.97;;;4.25;;
26502;SDS011;14177;51.520;6.764;2023-08-30T12:52:18;8.18;;;3.83;;
26502;SDS011;14177;51.520;6.764;2023-08-30T12:54:45;5.60;;;3.38;;
26502;SDS011;14177;51.520;6.764;2023-08-30T12:57:12;6.68;;;3.08;;
26502;SDS011;14177;51.520;6.764;2023-08-30T12:59:39;6.57;;;3.53;;
26502;SDS011;14177;51.520;6.764;2023-08-30T13:02:05;4.60;;;3.13;;
26502;SDS011;14177;51.520;6.764;2023-08-30T13:04:33;6.97;;;3.42;;
26502;SDS011;14177;51.520;6.764;2023-08-30T13:07:11;7.55;;;4.45;;
26502;SDS011;14177;51.520;6.764;2023-08-30T13:09:37;13.02;;;4.50;;
26502;SDS011;14177;51.520;6.764;2023-08-30T13:12:05;5.50;;;3.75;;
26502;SDS011;14177;51.520;6.764;2023-08-30T13:14:32;6.38;;;3.83;;
26502;SDS011;14177;51.520;6.764;2023-08-30T13:16:59;6.43;;;3.85;;
26502;SDS011;14177;51.520;6.764;2023-08-30T13:19:26;8.48;;;4.40;;
26502;SDS011;14177;51.520;6.764;2023-08-30T13:21:53;8.77;;;4.15;;
26502;SDS011;14177;51.520;6.764;2023-08-30T13:24:21;4.78;;;3.30;;
26502;SDS011;14177;51.520;6.764;2023-08-30T13:26:48;5.40;;;3.67;;
26502;SDS011;14177;51.520;6.764;2023-08-30T13:29:15;6.30;;;3.50;;
26502;SDS011;14177;51.520;6.764;2023-08-30T13:31:42;7.75;;;3.70;;
26502;SDS011;14177;51.520;6.764;2023-08-30T13:34:09;6.63;;;3.60;;
26502;SDS011;14177;51.520;6.764;2023-08-30T13:36:36;7.78;;;3.97;;
26502;SDS011;14177;51.520;6.764;2023-08-30T13:39:05;8.98;;;4.80;;
26502;SDS011;14177;51.520;6.764;2023-08-30T13:41:32;6.43;;;3.95;;
26502;SDS011;14177;51.520;6.764;2023-08-30T13:43:59;10.30;;;3.90;;
26502;SDS011;14177;51.520;6.764;2023-08-30T13:46:28;8.45;;;4.30;;
26502;SDS011;14177;51.520;6.764;2023-08-30T13:48:56;6.97;;;4.32;;
26502;SDS011;14177;51.520;6.764;2023-08-30T13:51:24;8.45;;;4.70;;
26502;SDS011;14177;51.520;6.764;2023-08-30T13:53:52;11.15;;;5.85;;
26502;SDS011;14177;51.520;6.764;2023-08-30T13:56:19;7.93;;;4.18;;
26502;SDS011;14177;51.520;6.764;2023-08-30T13:58:46;9.65;;;5.03;;
26502;SDS011;14177;51.520;6.764;2023-08-30T14:01:13;8.90;;;5.13;;
26502;SDS011;14177;51.520;6.764;2023-08-30T14:03:41;5.78;;;3.97;;
26502;SDS011;14177;51.520;6.764;2023-08-30T14:06:09;10.15;;;3.50;;
26502;SDS011;14177;51.520;6.764;2023-08-30T14:08:36;7.80;;;3.72;;
26502;SDS011;14177;51.520;6.764;2023-08-30T14:11:03;5.72;;;3.33;;
26502;SDS011;14177;51.520;6.764;2023-08-30T14:13:30;5.10;;;3.13;;
26502;SDS011;14177;51.520;6.764;2023-08-30T14:16:00;6.10;;;3.38;;
26502;SDS011;14177;51.520;6.764;2023-08-30T14:18:29;5.28;;;3.33;;
26502;SDS011;14177;51.520;6.764;2023-08-30T14:20:57;9.43;;;3.75;;
26502;SDS011;14177;51.520;6.764;2023-08-30T14:23:26;6.45;;;3.80;;
26502;SDS011;14177;51.520;6.764;2023-08-30T14:25:59;7.38;;;3.58;;
26502;SDS011;14177;51.520;6.764;2023-08-30T14:28:35;6.75;;;4.05;;
26502;SDS011;14177;51.520;6.764;2023-08-30T14:31:05;7.03;;;4.03;;
26502;SDS011;14177;51.520;6.764;2023-08-30T14:33:34;6.90;;;4.03;;
26502;SDS011;14177;51.520;6.764;2023-08-30T14:36:02;6.03;;;3.53;;
26502;SDS011;14177;51.520;6.764;2023-08-30T14:38:34;9.63;;;4.75;;
26502;SDS011;14177;51.520;6.764;2023-08-30T14:41:03;7.28;;;4.38;;
26502;SDS011;14177;51.520;6.764;2023-08-30T14:43:31;5.38;;;4.15;;
26502;SDS011;14177;51.520;6.764;2023-08-30T14:45:59;10.50;;;4.70;;
26502;SDS011;14177;51.520;6.764;2023-08-30T14:48:37;8.07;;;4.75;;
26502;SDS011;14177;51.520;6.764;2023-08-30T14:51:04;8.85;;;5.30;;
26502;SDS011;14177;51.520;6.764;2023-08-30T14:53:32;9.85;;;5.03;;
26502;SDS011;14177;51.520;6.764;2023-08-30T14:55:59;7.93;;;4.22;;